Time;durP1;ratioP1;P1;durP2;ratioP2;P2;SDS_P1;SDS_P2;PMS_P1;PMS_P2;Temp;Humidity;BMP_temperature;BMP_pressure;BME280_temperature;BME280_humidity;BME280_pressure;Samples;Min_cycle;Max_cycle;Signal;HPM_P1;HPM_P2
2023/01/22 00:01:19;;;;;;;;;;;0.20;99.90;;;;;;5021157;28;20617;-78
2023/01/22 00:03:45;;;;;;;;;;;0.20;99.90;;;;;;5022426;28;20372;-78
2023/01/22 00:06:11;;;;;;;;;;;0.30;99.90;;;;;;5020872;28;20101;-78
2023/01/22 00:08:36;;;;;;;;;;;0.20;99.90;;;;;;5018913;28;19940;-78
2023/01/22 00:11:03;;;;;;;;;;;0.20;99.90;;;;;;5034778;28;20307;-78
2023/01/22 00:13:28;;;;;;;;;;;0.20;99.90;;;;;;5033705;28;20467;-77
2023/01/22 00:15:57;;;;;;;;;;;0.20;99.90;;;;;;5019303;28;20135;-78
2023/01/22 00:18:23;;;;;;;;;;;0.20;99.90;;;;;;5033806;28;19924;-78
2023/01/22 00:20:50;;;;;;;;;;;0.20;99.90;;;;;;5022054;28;19917;-78
2023/01/22 00:23:15;;;;;;;;;;;0.20;99.90;;;;;;5021102;28;19913;-77
2023/01/22 00:25:41;;;;;;;;;;;0.30;99.90;;;;;;5024448;28;20293;-78
2023/01/22 00:28:07;;;;;;;;;;;0.10;99.90;;;;;;5024709;28;20551;-76
2023/01/22 00:30:33;;;;;;;;;;;0.10;99.90;;;;;;5026323;28;20012;-78
2023/01/22 00:33:01;;;;;;;;;;;0.10;99.90;;;;;;5043840;28;19959;-78
2023/01/22 00:35:26;;;;;;;;;;;0.20;99.90;;;;;;5026022;28;19916;-78
2023/01/22 00:37:52;;;;;;;;;;;0.20;99.90;;;;;;5024770;28;19996;-78
2023/01/22 00:40:18;;;;;;;;;;;0.20;99.90;;;;;;5023063;28;20307;-79
2023/01/22 00:42:43;;;;;;;;;;;0.20;99.90;;;;;;5022203;28;20106;-77
2023/01/22 00:45:11;;;;;;;;;;;0.20;99.90;;;;;;5022990;28;20198;-77
2023/01/22 00:47:37;;;;;;;;;;;0.20;99.90;;;;;;5023959;28;19967;-78
2023/01/22 00:50:02;;;;;;;;;;;0.30;99.90;;;;;;5023874;28;20367;-79
2023/01/22 00:52:28;;;;;;;;;;;-2.60;99.90;;;;;;5025832;28;19913;-77
2023/01/22 00:54:54;;;;;;;;;;;0.30;99.90;;;;;;5024198;28;19909;-78
2023/01/22 00:57:20;;;;;;;;;;;0.30;99.90;;;;;;5024571;28;20460;-78
2023/01/22 00:59:46;;;;;;;;;;;0.30;99.90;;;;;;5042359;28;20319;-78
2023/01/22 01:02:12;;;;;;;;;;;0.30;99.90;;;;;;5006965;28;20123;-78
2023/01/22 01:04:38;;;;;;;;;;;-0.60;99.90;;;;;;5006684;28;19920;-78
2023/01/22 01:07:04;;;;;;;;;;;0.40;99.90;;;;;;5025890;28;19909;-78
2023/01/22 01:09:30;;;;;;;;;;;0.30;99.90;;;;;;5024436;28;19913;-78
2023/01/22 01:11:59;;;;;;;;;;;0.30;99.90;;;;;;5025119;28;19975;-77
2023/01/22 01:14:25;;;;;;;;;;;0.30;99.90;;;;;;5024079;28;19998;-77
2023/01/22 01:16:51;;;;;;;;;;;0.30;99.90;;;;;;5024601;28;20252;-79
2023/01/22 01:19:24;;;;;;;;;;;0.30;99.90;;;;;;5025976;28;19948;-78
2023/01/22 01:21:49;;;;;;;;;;;0.30;99.90;;;;;;5024299;28;20019;-78
2023/01/22 01:24:15;;;;;;;;;;;0.40;99.90;;;;;;4992089;28;20290;-77
2023/01/22 01:26:41;;;;;;;;;;;0.40;99.90;;;;;;5005668;28;20450;-77
2023/01/22 01:29:08;;;;;;;;;;;0.20;99.90;;;;;;5003985;28;19937;-76
2023/01/22 01:31:34;;;;;;;;;;;0.40;99.90;;;;;;5003243;28;19953;-77
2023/01/22 01:34:00;;;;;;;;;;;0.40;99.90;;;;;;5004345;28;20261;-76
2023/01/22 01:36:26;;;;;;;;;;;0.30;99.90;;;;;;5004399;28;19984;-76
2023/01/22 01:38:53;;;;;;;;;;;0.20;99.90;;;;;;5001408;28;20186;-76
2023/01/22 01:41:21;;;;;;;;;;;0.20;99.90;;;;;;4983224;28;19918;-78
2023/01/22 01:44:04;;;;;;;;;;;0.20;99.90;;;;;;5002175;28;19910;-77
2023/01/22 01:46:34;;;;;;;;;;;0.20;99.90;;;;;;5003785;28;19916;-77
2023/01/22 01:48:59;;;;;;;;;;;0.20;99.90;;;;;;5003161;28;20317;-77
2023/01/22 01:51:30;;;;;;;;;;;0.20;99.90;;;;;;5003074;28;20082;-78
2023/01/22 01:53:58;;;;;;;;;;;-3.00;99.90;;;;;;5003273;28;20308;-77
2023/01/22 01:56:26;;;;;;;;;;;0.10;99.90;;;;;;5001246;28;19914;-77
2023/01/22 01:58:53;;;;;;;;;;;0.10;99.90;;;;;;5002209;28;20222;-77
2023/01/22 02:01:20;;;;;;;;;;;0.20;99.90;;;;;;5001750;28;19913;-77
2023/01/22 02:03:46;;;;;;;;;;;0.20;99.90;;;;;;5000984;28;19909;-78
2023/01/22 02:06:13;;;;;;;;;;;0.20;99.90;;;;;;5001398;28;19910;-77
2023/01/22 02:08:41;;;;;;;;;;;0.20;99.90;;;;;;5000861;28;19918;-77
2023/01/22 02:11:07;;;;;;;;;;;0.20;99.90;;;;;;5001105;28;19913;-78
2023/01/22 02:13:34;;;;;;;;;;;0.30;99.90;;;;;;5004544;28;20415;-79
2023/01/22 02:16:00;;;;;;;;;;;0.10;99.90;;;;;;5002341;28;19918;-77
2023/01/22 02:18:25;;;;;;;;;;;0.10;99.90;;;;;;5002573;28;19914;-78
2023/01/22 02:20:55;;;;;;;;;;;0.00;99.90;;;;;;5003504;28;19917;-77
2023/01/22 02:23:21;;;;;;;;;;;-0.10;99.90;;;;;;5009141;28;19975;-80
2023/01/22 02:25:47;;;;;;;;;;;-0.10;99.90;;;;;;5021535;28;19921;-77
2023/01/22 02:28:12;;;;;;;;;;;0.00;99.90;;;;;;5020821;28;20513;-78
2023/01/22 02:30:38;;;;;;;;;;;-0.10;99.90;;;;;;5020626;28;19963;-78
2023/01/22 02:33:03;;;;;;;;;;;-0.10;99.90;;;;;;5036064;28;19909;-77
2023/01/22 02:35:29;;;;;;;;;;;-0.10;99.90;;;;;;5021356;28;20075;-76
2023/01/22 02:37:55;;;;;;;;;;;0.00;99.90;;;;;;5025088;28;19917;-78
2023/01/22 02:40:20;;;;;;;;;;;-0.10;99.90;;;;;;5022423;28;19999;-77
2023/01/22 02:42:49;;;;;;;;;;;-0.10;99.90;;;;;;5022689;28;19909;-77
2023/01/22 02:45:14;;;;;;;;;;;0.00;99.90;;;;;;5022335;28;19909;-76
2023/01/22 02:47:40;;;;;;;;;;;0.10;99.90;;;;;;5022314;28;20130;-77
2023/01/22 02:50:05;;;;;;;;;;;0.10;99.90;;;;;;5022246;28;19913;-77
2023/01/22 02:52:31;;;;;;;;;;;0.10;99.90;;;;;;5023478;28;20391;-77
2023/01/22 02:54:57;;;;;;;;;;;0.10;99.90;;;;;;5021623;28;20003;-78
2023/01/22 02:57:23;;;;;;;;;;;0.10;99.90;;;;;;5022222;28;19955;-77
2023/01/22 02:59:48;;;;;;;;;;;0.10;99.90;;;;;;5004492;28;19923;-77
2023/01/22 03:02:14;;;;;;;;;;;0.10;99.90;;;;;;5006600;28;20055;-77
2023/01/22 03:04:39;;;;;;;;;;;0.10;99.90;;;;;;5007277;28;19947;-77
2023/01/22 03:07:05;;;;;;;;;;;0.20;99.90;;;;;;5039736;28;20407;-77
2023/01/22 03:09:30;;;;;;;;;;;0.20;99.90;;;;;;5024907;28;19917;-82
2023/01/22 03:11:57;;;;;;;;;;;-0.30;99.90;;;;;;5026663;28;19909;-77
2023/01/22 03:22:35;;;;;;;;;;;0.40;99.90;;;;;;5022101;28;19936;-77
2023/01/22 03:25:01;;;;;;;;;;;0.40;99.90;;;;;;5035927;28;19921;-77
2023/01/22 03:27:27;;;;;;;;;;;0.40;99.90;;;;;;5020520;28;19920;-78
2023/01/22 03:29:53;;;;;;;;;;;0.40;99.90;;;;;;5019959;28;20016;-78
2023/01/22 03:32:19;;;;;;;;;;;0.50;99.90;;;;;;5019394;28;19909;-77
2023/01/22 03:34:44;;;;;;;;;;;0.40;99.90;;;;;;5020072;28;19909;-77
2023/01/22 03:37:13;;;;;;;;;;;0.40;99.90;;;;;;5001107;28;19940;-77
2023/01/22 03:39:39;;;;;;;;;;;0.30;99.90;;;;;;5019130;28;20234;-78
2023/01/22 03:42:05;;;;;;;;;;;0.30;99.90;;;;;;5019618;28;20463;-78
2023/01/22 03:44:30;;;;;;;;;;;0.40;99.90;;;;;;5019250;28;20109;-78
2023/01/22 03:46:56;;;;;;;;;;;0.40;99.90;;;;;;5020584;28;20454;-77
2023/01/22 03:49:22;;;;;;;;;;;0.40;99.90;;;;;;5019995;28;20192;-77
2023/01/22 03:51:47;;;;;;;;;;;0.40;99.90;;;;;;5034575;28;19920;-78
2023/01/22 03:54:14;;;;;;;;;;;0.40;99.90;;;;;;5036973;28;20318;-77
2023/01/22 03:56:40;;;;;;;;;;;0.40;99.90;;;;;;5003441;28;20113;-76
2023/01/22 03:59:06;;;;;;;;;;;0.40;99.90;;;;;;5021771;28;19917;-77
2023/01/22 04:01:32;;;;;;;;;;;0.40;99.90;;;;;;5005417;28;19909;-77
2023/01/22 04:03:57;;;;;;;;;;;0.40;99.90;;;;;;5006771;28;19967;-77
2023/01/22 04:06:23;;;;;;;;;;;0.40;99.90;;;;;;5026374;28;20392;-77
2023/01/22 04:08:50;;;;;;;;;;;0.30;99.90;;;;;;5025466;28;20162;-76
2023/01/22 04:11:16;;;;;;;;;;;0.40;99.90;;;;;;5027640;28;19909;-77
2023/01/22 04:13:42;;;;;;;;;;;0.50;99.90;;;;;;5029077;28;19920;-76
2023/01/22 04:16:08;;;;;;;;;;;0.50;99.90;;;;;;5042130;28;19955;-77
2023/01/22 04:18:33;;;;;;;;;;;-0.60;99.90;;;;;;5026219;28;20130;-77
2023/01/22 04:20:59;;;;;;;;;;;0.40;99.90;;;;;;5039432;28;19913;-77
2023/01/22 04:23:25;;;;;;;;;;;0.50;99.90;;;;;;5026389;28;19929;-78
2023/01/22 04:25:51;;;;;;;;;;;0.50;99.90;;;;;;5039631;28;19924;-77
2023/01/22 04:28:17;;;;;;;;;;;0.50;99.90;;;;;;5039137;28;20403;-77
2023/01/22 04:30:44;;;;;;;;;;;1.20;99.90;;;;;;5024902;28;19917;-77
2023/01/22 04:33:10;;;;;;;;;;;0.50;99.90;;;;;;5023584;28;20005;-77
2023/01/22 04:35:36;;;;;;;;;;;0.50;99.90;;;;;;5023232;28;20624;-78
2023/01/22 04:38:02;;;;;;;;;;;0.60;99.90;;;;;;5025496;28;19963;-77
2023/01/22 04:40:27;;;;;;;;;;;0.60;99.90;;;;;;5005858;28;19925;-77
2023/01/22 04:42:53;;;;;;;;;;;0.60;99.90;;;;;;5038823;28;19909;-77
2023/01/22 04:45:19;;;;;;;;;;;0.50;99.90;;;;;;5023856;28;19979;-77
2023/01/22 04:47:46;;;;;;;;;;;0.60;99.90;;;;;;5022907;28;20283;-78
2023/01/22 04:50:16;;;;;;;;;;;0.60;99.90;;;;;;5038453;28;19945;-78
2023/01/22 04:52:41;;;;;;;;;;;0.40;99.90;;;;;;5005097;28;20105;-76
2023/01/22 04:55:07;;;;;;;;;;;0.50;99.90;;;;;;5022686;28;20470;-78
2023/01/22 04:57:33;;;;;;;;;;;0.60;99.90;;;;;;5022036;28;20395;-77
2023/01/22 04:59:58;;;;;;;;;;;0.60;99.90;;;;;;5036488;28;19917;-77
2023/01/22 05:02:24;;;;;;;;;;;0.50;99.90;;;;;;5021973;28;19909;-77
2023/01/22 05:04:49;;;;;;;;;;;0.50;99.90;;;;;;5021867;28;20141;-77
2023/01/22 05:07:15;;;;;;;;;;;0.50;99.90;;;;;;5022354;28;19909;-77
2023/01/22 05:09:46;;;;;;;;;;;1.50;99.90;;;;;;5026537;28;20169;-81
2023/01/22 05:12:12;;;;;;;;;;;0.50;99.90;;;;;;5033530;28;19913;-78
2023/01/22 05:14:38;;;;;;;;;;;0.50;99.90;;;;;;5035831;28;19909;-78
2023/01/22 05:17:03;;;;;;;;;;;0.50;99.90;;;;;;5035548;28;19910;-77
2023/01/22 05:19:29;;;;;;;;;;;0.50;99.90;;;;;;5039284;28;19917;-78
2023/01/22 05:21:54;;;;;;;;;;;0.60;99.90;;;;;;5040733;28;20482;-77
2023/01/22 05:24:20;;;;;;;;;;;0.50;99.90;;;;;;5040337;28;19921;-78
2023/01/22 05:26:45;;;;;;;;;;;0.60;99.90;;;;;;5020156;28;19913;-77
2023/01/22 05:29:11;;;;;;;;;;;0.50;99.90;;;;;;5041585;28;19909;-79
2023/01/22 05:31:37;;;;;;;;;;;0.50;99.90;;;;;;5042732;28;19933;-78
2023/01/22 05:34:03;;;;;;;;;;;0.50;99.90;;;;;;5036144;28;19909;-77
2023/01/22 05:36:29;;;;;;;;;;;0.50;99.90;;;;;;5020056;28;20667;-78
2023/01/22 05:38:57;;;;;;;;;;;0.40;99.90;;;;;;5038115;28;19917;-77
2023/01/22 05:41:22;;;;;;;;;;;0.40;99.90;;;;;;5038179;28;20345;-77
2023/01/22 05:43:48;;;;;;;;;;;0.50;99.90;;;;;;5021674;28;19909;-76
2023/01/22 05:46:13;;;;;;;;;;;0.30;99.90;;;;;;5021124;28;20122;-77
2023/01/22 05:48:39;;;;;;;;;;;0.30;99.90;;;;;;5020199;28;20288;-77
2023/01/22 05:51:06;;;;;;;;;;;0.30;99.90;;;;;;5034837;28;20117;-78
2023/01/22 05:53:32;;;;;;;;;;;0.20;99.90;;;;;;5021855;28;19959;-78
2023/01/22 05:56:01;;;;;;;;;;;1.10;99.90;;;;;;5022140;28;20166;-77
2023/01/22 05:58:27;;;;;;;;;;;0.20;99.90;;;;;;5023030;28;20091;-77
2023/01/22 06:00:53;;;;;;;;;;;0.20;99.90;;;;;;5021048;28;20206;-78
2023/01/22 06:03:18;;;;;;;;;;;0.10;99.90;;;;;;5020186;28;19955;-77
2023/01/22 06:05:44;;;;;;;;;;;0.10;99.90;;;;;;5020592;28;19909;-77
2023/01/22 06:08:10;;;;;;;;;;;0.10;99.90;;;;;;5020842;28;19917;-76
2023/01/22 06:10:35;;;;;;;;;;;0.10;99.90;;;;;;5035694;28;19939;-77
2023/01/22 06:13:01;;;;;;;;;;;0.20;99.90;;;;;;5020575;28;20051;-77
2023/01/22 06:15:27;;;;;;;;;;;0.20;99.90;;;;;;5022575;28;20127;-78
2023/01/22 06:18:19;;;;;;;;;;;0.30;99.90;;;;;;5005945;28;19909;-77
2023/01/22 06:20:45;;;;;;;;;;;2.60;99.90;;;;;;5003865;28;20382;-76
2023/01/22 06:23:21;;;;;;;;;;;0.40;99.90;;;;;;5023384;28;20557;-77
2023/01/22 06:25:51;;;;;;;;;;;0.40;99.90;;;;;;5037367;28;20307;-78
2023/01/22 06:28:16;;;;;;;;;;;0.40;99.90;;;;;;5026175;28;20257;-78
2023/01/22 06:30:50;;;;;;;;;;;0.20;99.90;;;;;;5024892;28;20011;-78
2023/01/22 06:33:19;;;;;;;;;;;0.40;99.90;;;;;;5036418;28;19909;-76
2023/01/22 06:35:51;;;;;;;;;;;1.30;99.90;;;;;;5023239;28;19909;-77
2023/01/22 06:38:17;;;;;;;;;;;-1.20;99.90;;;;;;5022929;28;20198;-77
2023/01/22 06:40:43;;;;;;;;;;;2.00;99.90;;;;;;5006111;28;19925;-75
2023/01/22 06:43:09;;;;;;;;;;;1.00;99.90;;;;;;5006787;28;20082;-78
2023/01/22 06:45:45;;;;;;;;;;;0.50;99.90;;;;;;5022860;28;19909;-77
2023/01/22 06:48:17;;;;;;;;;;;0.50;99.90;;;;;;5023612;28;19913;-77
2023/01/22 06:50:43;;;;;;;;;;;0.30;99.90;;;;;;5003010;28;20289;-77
2023/01/22 06:53:09;;;;;;;;;;;0.50;99.90;;;;;;5023038;28;19910;-77
2023/01/22 06:55:35;;;;;;;;;;;0.50;99.90;;;;;;5023492;28;20194;-77
2023/01/22 06:58:00;;;;;;;;;;;0.50;99.90;;;;;;5021398;28;19919;-77
2023/01/22 07:00:26;;;;;;;;;;;0.60;99.90;;;;;;5022136;28;19916;-77
2023/01/22 07:02:53;;;;;;;;;;;0.60;99.90;;;;;;5021297;28;19951;-76
2023/01/22 07:05:21;;;;;;;;;;;0.70;99.90;;;;;;5036146;28;19920;-76
2023/01/22 07:07:47;;;;;;;;;;;0.60;99.90;;;;;;5021024;28;20117;-77
2023/01/22 07:10:13;;;;;;;;;;;0.70;99.90;;;;;;5020558;28;20194;-77
2023/01/22 07:12:38;;;;;;;;;;;0.70;99.90;;;;;;5020940;28;19909;-78
2023/01/22 07:15:06;;;;;;;;;;;0.70;99.90;;;;;;5022375;28;19939;-77
2023/01/22 07:17:32;;;;;;;;;;;0.80;99.90;;;;;;5003824;28;20405;-77
2023/01/22 07:19:58;;;;;;;;;;;0.80;99.90;;;;;;5021793;28;20017;-77
2023/01/22 07:22:23;;;;;;;;;;;0.20;99.90;;;;;;5021512;28;20055;-77
2023/01/22 07:24:49;;;;;;;;;;;0.70;99.90;;;;;;5004291;28;20524;-77
2023/01/22 07:27:14;;;;;;;;;;;0.70;99.90;;;;;;5021490;28;20261;-77
2023/01/22 07:29:40;;;;;;;;;;;0.80;99.90;;;;;;5020330;28;20106;-77
2023/01/22 07:32:06;;;;;;;;;;;0.70;99.90;;;;;;5021451;28;20506;-77
2023/01/22 07:34:31;;;;;;;;;;;0.70;99.90;;;;;;5020122;28;19909;-76
2023/01/22 07:37:03;;;;;;;;;;;0.80;99.90;;;;;;5039866;28;19988;-77
2023/01/22 07:39:29;;;;;;;;;;;1.50;99.90;;;;;;5023525;28;19925;-78
2023/01/22 07:41:54;;;;;;;;;;;0.90;99.90;;;;;;5024296;28;20241;-77
2023/01/22 07:44:20;;;;;;;;;;;1.00;99.90;;;;;;5025058;28;19917;-77
2023/01/22 07:46:45;;;;;;;;;;;1.00;99.90;;;;;;5026370;28;19945;-77
2023/01/22 07:49:11;;;;;;;;;;;1.00;99.90;;;;;;5025297;28;20425;-78
2023/01/22 07:51:36;;;;;;;;;;;1.10;99.90;;;;;;5026028;28;19956;-77
2023/01/22 07:54:02;;;;;;;;;;;1.10;99.90;;;;;;5040770;28;20123;-77
2023/01/22 07:56:28;;;;;;;;;;;1.20;99.90;;;;;;5026089;28;19920;-77
2023/01/22 07:58:54;;;;;;;;;;;1.30;99.90;;;;;;5041317;28;20327;-76
2023/01/22 08:01:20;;;;;;;;;;;1.30;99.90;;;;;;5025904;28;20135;-77
2023/01/22 08:03:45;;;;;;;;;;;1.50;99.90;;;;;;5024945;28;19920;-76
2023/01/22 08:06:13;;;;;;;;;;;1.50;99.90;;;;;;5023628;28;19909;-77
2023/01/22 08:08:39;;;;;;;;;;;1.30;99.90;;;;;;5024692;28;19924;-76
2023/01/22 08:11:04;;;;;;;;;;;1.40;99.90;;;;;;5023762;28;20388;-76
2023/01/22 08:13:32;;;;;;;;;;;1.50;99.90;;;;;;5039781;28;19909;-76
2023/01/22 08:16:01;;;;;;;;;;;1.40;99.90;;;;;;5027259;28;19909;-77
2023/01/22 08:18:27;;;;;;;;;;;1.50;99.90;;;;;;5025905;28;19913;-77
2023/01/22 08:20:53;;;;;;;;;;;1.60;99.90;;;;;;5023552;28;19919;-76
2023/01/22 08:23:19;;;;;;;;;;;1.70;99.90;;;;;;5025775;28;19913;-76
2023/01/22 08:25:44;;;;;;;;;;;1.70;99.90;;;;;;5023879;28;19923;-77
2023/01/22 08:28:10;;;;;;;;;;;2.40;99.90;;;;;;5037414;28;20465;-77
2023/01/22 08:30:36;;;;;;;;;;;1.80;99.90;;;;;;5021354;28;20004;-77
2023/01/22 08:33:02;;;;;;;;;;;1.90;99.90;;;;;;5026467;28;19977;-77
2023/01/22 08:35:28;;;;;;;;;;;2.10;99.90;;;;;;5024257;28;19909;-77
2023/01/22 08:37:56;;;;;;;;;;;2.20;99.90;;;;;;5028542;28;19963;-77
2023/01/22 08:40:24;;;;;;;;;;;2.60;99.90;;;;;;5000840;28;19926;-78
2023/01/22 08:42:50;;;;;;;;;;;2.90;99.90;;;;;;4982755;28;19914;-78
2023/01/22 08:45:16;;;;;;;;;;;3.10;99.90;;;;;;5003714;28;19910;-77
2023/01/22 08:47:42;;;;;;;;;;;3.10;99.90;;;;;;5004045;28;19971;-77
2023/01/22 08:50:07;;;;;;;;;;;3.10;99.90;;;;;;5004124;28;19913;-77
2023/01/22 08:52:33;;;;;;;;;;;3.00;99.90;;;;;;5003368;28;19992;-78
2023/01/22 08:54:59;;;;;;;;;;;3.00;99.90;;;;;;4988840;28;19910;-78
2023/01/22 08:57:24;;;;;;;;;;;2.90;99.90;;;;;;4987517;28;20706;-77
2023/01/22 08:59:53;;;;;;;;;;;2.90;99.90;;;;;;5006630;28;19971;-78
2023/01/22 09:02:26;;;;;;;;;;;3.10;99.90;;;;;;5004412;28;20039;-78
2023/01/22 09:04:52;;;;;;;;;;;0.90;99.90;;;;;;5006674;28;19916;-77
2023/01/22 09:07:18;;;;;;;;;;;3.00;99.90;;;;;;4988451;28;19909;-78
2023/01/22 09:09:43;;;;;;;;;;;3.00;99.90;;;;;;5006629;28;19921;-78
2023/01/22 09:12:09;;;;;;;;;;;3.00;99.90;;;;;;5004682;28;20015;-78
2023/01/22 09:14:34;;;;;;;;;;;3.00;99.90;;;;;;5004998;28;19914;-77
2023/01/22 09:17:00;;;;;;;;;;;2.70;99.90;;;;;;5007485;28;19905;-77
2023/01/22 09:19:26;;;;;;;;;;;2.90;99.90;;;;;;4986570;28;19924;-77
2023/01/22 09:21:54;;;;;;;;;;;2.90;99.90;;;;;;5004310;28;19910;-78
2023/01/22 09:24:22;;;;;;;;;;;2.90;99.90;;;;;;5004936;28;19952;-77
2023/01/22 09:26:48;;;;;;;;;;;2.90;99.90;;;;;;4988197;28;19905;-77
2023/01/22 09:29:13;;;;;;;;;;;2.80;99.90;;;;;;5002655;28;19906;-77
2023/01/22 09:31:39;;;;;;;;;;;2.80;99.90;;;;;;5002036;28;19910;-77
2023/01/22 09:34:05;;;;;;;;;;;2.70;99.90;;;;;;5004048;28;19980;-78
2023/01/22 09:36:30;;;;;;;;;;;2.90;99.90;;;;;;5003253;28;19920;-77
2023/01/22 09:38:56;;;;;;;;;;;2.80;99.90;;;;;;5002417;28;19970;-77
2023/01/22 09:41:27;;;;;;;;;;;3.00;99.90;;;;;;4986016;28;20165;-77
2023/01/22 09:43:54;;;;;;;;;;;2.70;99.90;;;;;;4985095;28;19941;-77
2023/01/22 09:46:27;;;;;;;;;;;2.80;99.90;;;;;;5002729;28;19909;-77
2023/01/22 09:48:56;;;;;;;;;;;2.80;99.90;;;;;;5002397;28;19964;-78
2023/01/22 09:51:21;;;;;;;;;;;2.70;99.90;;;;;;5004956;28;19940;-77
2023/01/22 09:53:51;;;;;;;;;;;2.80;99.90;;;;;;5004850;28;20554;-76
2023/01/22 09:56:19;;;;;;;;;;;2.90;99.90;;;;;;4987498;28;19909;-77
2023/01/22 09:58:48;;;;;;;;;;;2.90;99.90;;;;;;5006039;28;19940;-78
2023/01/22 10:01:18;;;;;;;;;;;2.90;99.90;;;;;;5006756;28;19916;-77
2023/01/22 10:03:55;;;;;;;;;;;6.10;99.90;;;;;;5005422;28;20169;-78
2023/01/22 10:06:22;;;;;;;;;;;2.70;99.90;;;;;;5007865;28;20487;-78
2023/01/22 10:08:56;;;;;;;;;;;2.80;99.90;;;;;;5005679;28;19963;-78
2023/01/22 10:11:22;;;;;;;;;;;2.80;99.90;;;;;;5005260;28;20000;-78
2023/01/22 10:13:50;;;;;;;;;;;2.80;99.90;;;;;;4987759;28;20657;-78
2023/01/22 10:16:15;;;;;;;;;;;2.80;99.90;;;;;;5009925;28;19910;-77
2023/01/22 10:18:43;;;;;;;;;;;2.80;99.90;;;;;;5008616;28;19909;-78
2023/01/22 10:21:21;;;;;;;;;;;2.90;99.90;;;;;;5011514;28;19910;-78
2023/01/22 10:23:49;;;;;;;;;;;2.80;99.90;;;;;;4994034;28;19927;-76
2023/01/22 10:26:17;;;;;;;;;;;2.90;99.90;;;;;;5011588;28;19932;-77
2023/01/22 10:28:47;;;;;;;;;;;2.80;99.90;;;;;;5011352;28;19976;-77
2023/01/22 10:31:27;;;;;;;;;;;2.80;99.90;;;;;;5007375;28;19985;-77
2023/01/22 10:34:18;;;;;;;;;;;2.80;99.90;;;;;;5004997;28;19917;-77
2023/01/22 10:36:48;;;;;;;;;;;2.60;99.90;;;;;;5010326;28;19916;-78
2023/01/22 10:39:14;;;;;;;;;;;2.50;99.90;;;;;;5008701;28;19921;-78
2023/01/22 10:41:40;;;;;;;;;;;2.30;99.90;;;;;;5005806;28;19909;-78
2023/01/22 10:44:15;;;;;;;;;;;2.00;99.90;;;;;;5002594;28;19906;-78
2023/01/22 10:46:41;;;;;;;;;;;2.00;99.90;;;;;;5002455;28;20008;-77
2023/01/22 10:49:12;;;;;;;;;;;2.00;99.90;;;;;;5003273;28;19976;-78
2023/01/22 10:51:39;;;;;;;;;;;2.00;99.90;;;;;;5001118;28;20032;-77
2023/01/22 10:54:17;;;;;;;;;;;2.00;99.90;;;;;;4983063;28;19906;-78
2023/01/22 10:56:43;;;;;;;;;;;2.00;99.90;;;;;;5000887;28;19913;-77
2023/01/22 10:59:21;;;;;;;;;;;2.00;99.90;;;;;;5002733;28;19925;-78
2023/01/22 11:01:48;;;;;;;;;;;2.00;99.90;;;;;;5001124;28;19961;-77
2023/01/22 11:04:19;;;;;;;;;;;2.00;99.90;;;;;;4984115;28;19963;-78
2023/01/22 11:06:47;;;;;;;;;;;1.70;99.90;;;;;;5000170;28;19957;-77
2023/01/22 11:09:23;;;;;;;;;;;1.80;99.90;;;;;;5000740;28;19972;-78
2023/01/22 11:11:56;;;;;;;;;;;2.60;99.90;;;;;;4982778;28;20134;-78
2023/01/22 11:14:26;;;;;;;;;;;1.50;99.90;;;;;;5000144;28;20425;-77
2023/01/22 11:16:54;;;;;;;;;;;3.80;99.90;;;;;;5001793;28;19917;-78
2023/01/22 11:19:21;;;;;;;;;;;1.80;99.90;;;;;;4999899;28;19926;-78
2023/01/22 11:21:53;;;;;;;;;;;1.80;99.90;;;;;;5000086;28;20000;-78
2023/01/22 11:24:18;;;;;;;;;;;1.90;99.90;;;;;;5001265;28;19925;-78
2023/01/22 11:27:03;;;;;;;;;;;0.60;99.90;;;;;;4999429;28;19905;-77
2023/01/22 11:29:34;;;;;;;;;;;1.90;99.90;;;;;;4999827;28;19916;-77
2023/01/22 11:32:07;;;;;;;;;;;2.10;99.90;;;;;;5000252;28;19953;-77
2023/01/22 11:34:51;;;;;;;;;;;2.10;99.90;;;;;;5000778;28;19909;-77
2023/01/22 11:37:25;;;;;;;;;;;2.10;99.90;;;;;;5002030;28;19910;-77
2023/01/22 11:40:00;;;;;;;;;;;2.10;99.90;;;;;;5004050;28;19980;-78
2023/01/22 11:42:34;;;;;;;;;;;2.00;99.90;;;;;;4999629;28;19916;-78
2023/01/22 11:45:12;;;;;;;;;;;2.00;99.90;;;;;;4984494;28;20584;-78
2023/01/22 11:47:38;;;;;;;;;;;2.00;99.90;;;;;;5001156;28;19960;-78
2023/01/22 11:50:25;;;;;;;;;;;2.10;99.90;;;;;;4984137;28;20473;-78
2023/01/22 11:53:03;;;;;;;;;;;2.10;99.90;;;;;;5000773;28;19917;-78
2023/01/22 11:55:39;;;;;;;;;;;2.20;99.90;;;;;;5002266;28;20118;-78
2023/01/22 11:58:20;;;;;;;;;;;2.20;99.90;;;;;;4999960;28;20584;-78
2023/01/22 12:00:48;;;;;;;;;;;2.20;99.90;;;;;;4981526;28;19945;-78
2023/01/22 12:03:20;;;;;;;;;;;2.20;99.90;;;;;;4981751;28;19914;-78
2023/01/22 12:05:46;;;;;;;;;;;2.20;99.90;;;;;;4999906;28;19913;-78
2023/01/22 12:08:20;;;;;;;;;;;2.30;99.90;;;;;;5001471;28;19968;-77
2023/01/22 12:10:58;;;;;;;;;;;1.20;99.90;;;;;;4984509;28;19916;-77
2023/01/22 12:13:33;;;;;;;;;;;2.60;99.90;;;;;;5001355;28;20553;-78
2023/01/22 12:16:10;;;;;;;;;;;2.80;99.90;;;;;;5002119;28;20004;-78
2023/01/22 12:18:54;;;;;;;;;;;2.90;99.90;;;;;;5001956;28;19913;-79
2023/01/22 12:21:52;;;;;;;;;;;2.90;99.90;;;;;;5004961;28;19914;-78
2023/01/22 12:24:20;;;;;;;;;;;3.00;99.90;;;;;;4927907;29;19918;-78
2023/01/22 12:26:56;;;;;;;;;;;2.90;99.90;;;;;;4945510;28;22491;-78
2023/01/22 12:29:28;;;;;;;;;;;2.90;99.90;;;;;;4946283;28;19918;-78
2023/01/22 12:32:21;;;;;;;;;;;2.90;99.90;;;;;;4929248;29;19950;-77
2023/01/22 12:34:54;;;;;;;;;;;2.90;99.90;;;;;;4946010;28;20708;-78
2023/01/22 12:37:22;;;;;;;;;;;2.60;99.90;;;;;;4947454;29;19906;-77
2023/01/22 12:40:04;;;;;;;;;;;2.70;99.90;;;;;;4944675;28;20626;-77
2023/01/22 12:42:43;;;;;;;;;;;2.20;99.90;;;;;;4945170;28;19911;-78
2023/01/22 12:45:26;;;;;;;;;;;2.70;99.90;;;;;;4946268;28;19910;-76
2023/01/22 12:48:19;;;;;;;;;;;2.70;99.90;;;;;;4956201;28;19898;-81
2023/01/22 12:50:52;;;;;;;;;;;2.70;99.90;;;;;;4933388;29;19941;-79
2023/01/22 12:53:20;;;;;;;;;;;3.00;99.90;;;;;;4929578;29;20374;-79
2023/01/22 12:55:56;;;;;;;;;;;2.40;99.90;;;;;;4914390;29;19907;-78
2023/01/22 12:58:26;;;;;;;;;;;2.40;99.90;;;;;;4928612;29;19914;-78
2023/01/22 13:00:58;;;;;;;;;;;2.30;99.90;;;;;;4958443;28;19914;-78
2023/01/22 13:03:27;;;;;;;;;;;2.40;99.90;;;;;;4944047;28;20027;-77
2023/01/22 13:05:53;;;;;;;;;;;2.40;99.90;;;;;;4961102;28;19953;-78
2023/01/22 13:08:22;;;;;;;;;;;2.50;99.90;;;;;;4946623;28;20037;-78
2023/01/22 13:10:51;;;;;;;;;;;2.20;99.90;;;;;;4947376;28;20140;-78
2023/01/22 13:13:22;;;;;;;;;;;2.50;99.90;;;;;;4966079;28;19910;-79
2023/01/22 13:16:20;;;;;;;;;;;2.50;99.90;;;;;;4948831;28;19918;-78
2023/01/22 13:19:08;;;;;;;;;;;2.00;99.90;;;;;;4928790;29;19927;-78
2023/01/22 13:21:34;;;;;;;;;;;2.50;99.90;;;;;;4916355;29;19959;-78
2023/01/22 13:24:04;;;;;;;;;;;2.50;99.90;;;;;;4937749;29;19923;-78
2023/01/22 13:26:32;;;;;;;;;;;2.40;99.90;;;;;;4922250;29;19941;-79
2023/01/22 13:28:59;;;;;;;;;;;2.40;99.90;;;;;;4957712;29;19942;-78
2023/01/22 13:31:25;;;;;;;;;;;2.40;99.90;;;;;;4949609;28;19970;-78
2023/01/22 13:33:57;;;;;;;;;;;2.30;99.90;;;;;;4956356;29;19907;-79
2023/01/22 13:36:24;;;;;;;;;;;2.30;99.90;;;;;;4956138;29;20001;-79
2023/01/22 13:38:54;;;;;;;;;;;2.20;99.90;;;;;;4940563;29;20013;-79
2023/01/22 13:41:40;;;;;;;;;;;2.20;99.90;;;;;;4953555;29;20467;-79
2023/01/22 13:44:06;;;;;;;;;;;2.20;99.90;;;;;;4951171;29;20120;-79
2023/01/22 13:46:35;;;;;;;;;;;2.20;99.90;;;;;;4936552;29;20449;-79
2023/01/22 13:49:11;;;;;;;;;;;2.20;99.90;;;;;;4953220;28;20421;-79
2023/01/22 13:51:37;;;;;;;;;;;2.20;99.90;;;;;;4951811;28;19911;-79
2023/01/22 13:54:03;;;;;;;;;;;2.20;99.90;;;;;;4950086;28;20005;-79
2023/01/22 13:56:29;;;;;;;;;;;0.70;99.90;;;;;;4991924;28;19909;-79
2023/01/22 13:59:05;;;;;;;;;;;2.20;99.90;;;;;;5007674;28;19914;-79
2023/01/22 14:01:32;;;;;;;;;;;2.20;99.90;;;;;;5005084;28;19948;-78
2023/01/22 14:04:02;;;;;;;;;;;2.20;99.90;;;;;;5003952;28;19937;-79
2023/01/22 14:06:29;;;;;;;;;;;2.20;99.90;;;;;;5003639;28;19912;-79
2023/01/22 14:08:56;;;;;;;;;;;3.30;99.90;;;;;;5004291;28;19912;-78
2023/01/22 14:11:22;;;;;;;;;;;2.10;99.90;;;;;;4986644;28;19909;-78
2023/01/22 14:13:49;;;;;;;;;;;2.10;99.90;;;;;;5006736;28;20157;-78
2023/01/22 14:16:14;;;;;;;;;;;2.00;99.90;;;;;;4986024;28;20388;-79
2023/01/22 14:18:40;;;;;;;;;;;2.00;99.90;;;;;;5002176;28;19921;-79
2023/01/22 14:21:06;;;;;;;;;;;1.40;99.90;;;;;;5002507;28;20024;-78
2023/01/22 14:23:32;;;;;;;;;;;2.00;99.90;;;;;;5002980;28;19956;-79
2023/01/22 14:26:00;;;;;;;;;;;2.00;99.90;;;;;;5003812;28;19944;-79
2023/01/22 14:28:27;;;;;;;;;;;1.90;99.90;;;;;;5002731;28;19910;-78
2023/01/22 14:30:53;;;;;;;;;;;1.90;99.90;;;;;;5006902;28;19956;-79
2023/01/22 14:33:20;;;;;;;;;;;1.90;99.90;;;;;;4986111;28;19944;-79
2023/01/22 14:35:46;;;;;;;;;;;1.90;99.90;;;;;;5002919;28;19913;-79
2023/01/22 14:38:12;;;;;;;;;;;1.90;99.90;;;;;;5005505;28;19905;-79
2023/01/22 14:40:37;;;;;;;;;;;1.90;99.90;;;;;;4985225;28;20157;-78
2023/01/22 14:43:05;;;;;;;;;;;1.80;99.90;;;;;;5003100;28;19940;-79